createdAt,value
2023-02-18T00:00:24.105Z,4.20
2023-02-18T00:01:25.826Z,4.33
2023-02-18T00:02:27.235Z,4.50
2023-02-18T00:03:29.145Z,4.53
2023-02-18T00:04:30.561Z,4.33
2023-02-18T00:05:31.909Z,4.33
2023-02-18T00:06:34.478Z,4.07
2023-02-18T00:07:36.428Z,4.73
2023-02-18T00:08:37.852Z,4.00
2023-02-18T00:09:39.242Z,4.03
2023-02-18T00:10:41.817Z,4.50
2023-02-18T00:11:43.167Z,4.70
2023-02-18T00:12:44.816Z,4.43
2023-02-18T00:13:50.198Z,4.33
2023-02-18T00:14:51.544Z,4.57
2023-02-18T00:15:52.855Z,4.20
2023-02-18T00:16:54.187Z,4.20
2023-02-18T00:17:55.476Z,4.30
2023-02-18T00:19:01.171Z,4.50
2023-02-18T00:20:02.601Z,4.50
2023-02-18T00:21:05.148Z,4.43
2023-02-18T00:22:06.500Z,4.73
2023-02-18T00:23:07.884Z,4.40
2023-02-18T00:24:09.720Z,3.87
2023-02-18T00:25:11.050Z,4.80
2023-02-18T00:26:13.417Z,4.27
2023-02-18T00:27:15.643Z,4.37
2023-02-18T00:28:16.968Z,4.30
2023-02-18T00:29:18.788Z,4.37
2023-02-18T00:30:20.311Z,4.47
2023-02-18T00:31:21.739Z,4.47
2023-02-18T00:32:23.168Z,4.30
2023-02-18T00:33:24.593Z,4.33
2023-02-18T00:34:26.953Z,4.27
2023-02-18T00:35:28.395Z,4.80
2023-02-18T00:36:29.840Z,4.60
2023-02-18T00:37:31.755Z,4.60
2023-02-18T00:38:34.261Z,4.43
2023-02-18T00:39:35.583Z,4.47
2023-02-18T00:40:40.504Z,4.30
2023-02-18T00:41:41.953Z,3.97
2023-02-18T00:42:43.297Z,4.50
2023-02-18T00:43:44.790Z,4.87
2023-02-18T00:44:46.147Z,4.60
2023-02-18T00:45:48.887Z,4.70
2023-02-18T00:46:50.318Z,4.53
2023-02-18T00:47:51.669Z,4.67
2023-02-18T00:48:53.328Z,4.90
2023-02-18T00:49:54.631Z,4.97
2023-02-18T00:50:56.165Z,4.73
2023-02-18T00:51:57.724Z,4.77
2023-02-18T00:52:59.138Z,4.77
2023-02-18T00:54:00.502Z,4.63
2023-02-18T00:55:01.830Z,4.90
2023-02-18T00:56:03.494Z,5.07
2023-02-18T00:57:04.924Z,4.80
2023-02-18T00:58:06.392Z,4.80
2023-02-18T00:59:07.716Z,4.90
2023-02-18T01:00:09.383Z,4.57
2023-02-18T01:01:11.311Z,4.73
2023-02-18T01:02:12.678Z,4.73
2023-02-18T01:03:14.444Z,4.50
2023-02-18T01:04:15.882Z,4.77
2023-02-18T01:05:17.212Z,4.90
2023-02-18T01:06:18.566Z,5.07
2023-02-18T01:07:19.937Z,4.70
2023-02-18T01:08:22.056Z,4.53
2023-02-18T01:09:25.732Z,4.37
2023-02-18T01:10:27.151Z,4.50
2023-02-18T01:11:28.497Z,4.27
2023-02-18T01:12:29.823Z,4.60
2023-02-18T01:13:31.299Z,5.03
2023-02-18T01:14:33.610Z,4.50
2023-02-18T01:15:34.912Z,4.80
2023-02-18T01:16:37.638Z,4.43
2023-02-18T01:17:38.947Z,4.90
2023-02-18T01:18:40.681Z,4.90
2023-02-18T01:19:42.013Z,4.53
2023-02-18T01:20:44.087Z,4.90
2023-02-18T01:21:45.480Z,4.63
2023-02-18T01:22:46.837Z,4.77
2023-02-18T01:23:48.340Z,4.93
2023-02-18T01:24:50.609Z,4.37
2023-02-18T01:25:52.301Z,4.73
2023-02-18T01:26:53.713Z,4.60
2023-02-18T01:27:55.009Z,4.40
2023-02-18T01:28:57.375Z,4.43
2023-02-18T01:29:58.793Z,4.67
2023-02-18T01:31:04.607Z,4.67
2023-02-18T01:32:06.800Z,4.40
2023-02-18T01:33:08.240Z,4.17
2023-02-18T01:34:09.598Z,4.07
2023-02-18T01:35:12.393Z,4.60
2023-02-18T01:36:13.866Z,4.80
2023-02-18T01:37:15.262Z,4.70
2023-02-18T01:38:16.576Z,4.57
2023-02-18T01:39:18.805Z,4.23
2023-02-18T01:40:22.028Z,4.40
2023-02-18T01:41:23.495Z,4.50
2023-02-18T01:42:26.304Z,4.40
2023-02-18T01:43:27.636Z,4.40
2023-02-18T01:44:29.431Z,4.03
2023-02-18T01:45:33.641Z,4.50
2023-02-18T01:46:34.963Z,4.50
2023-02-18T01:47:36.278Z,4.70
2023-02-18T01:48:42.973Z,4.50
2023-02-18T01:49:46.337Z,4.23
2023-02-18T01:50:49.860Z,4.30
2023-02-18T01:51:57.279Z,4.40
2023-02-18T01:52:58.693Z,4.60
2023-02-18T01:54:06.393Z,4.53
2023-02-18T01:55:08.626Z,4.43
2023-02-18T01:56:13.289Z,4.53
2023-02-18T01:57:20.884Z,5.00
2023-02-18T01:58:22.523Z,4.53
2023-02-18T01:59:29.460Z,4.50
2023-02-18T02:00:32.797Z,5.17
2023-02-18T02:01:34.933Z,4.60
2023-02-18T02:02:37.369Z,4.83
2023-02-18T02:03:38.791Z,4.43
2023-02-18T02:04:40.506Z,4.60
2023-02-18T02:05:43.866Z,4.57
2023-02-18T02:06:49.136Z,4.40
2023-02-18T02:07:51.980Z,4.60
2023-02-18T02:08:55.301Z,4.50
2023-02-18T02:09:57.641Z,4.20
2023-02-18T02:10:59.027Z,4.43
2023-02-18T02:12:20.982Z,4.23
2023-02-18T02:13:42.786Z,4.10
2023-02-18T02:14:53.244Z,4.30
2023-02-18T02:16:01.242Z,4.50
2023-02-18T02:17:04.116Z,4.20
2023-02-18T02:18:13.441Z,4.53
2023-02-18T02:19:20.581Z,4.27
2023-02-18T02:20:48.008Z,4.30
2023-02-18T02:22:07.603Z,4.43
2023-02-18T02:23:26.279Z,4.43
2023-02-18T02:24:27.681Z,3.93
2023-02-18T02:25:49.089Z,3.90
2023-02-18T02:27:08.646Z,4.40
2023-02-18T02:28:28.792Z,4.40
2023-02-18T02:29:30.148Z,4.47
2023-02-18T02:31:04.211Z,4.30
2023-02-18T02:32:05.640Z,4.40
2023-02-18T02:33:34.396Z,4.10
2023-02-18T02:34:51.227Z,4.07
2023-02-18T02:35:59.947Z,4.70
2023-02-18T02:37:04.916Z,4.70
2023-02-18T02:38:20.068Z,4.37
2023-02-18T02:39:21.504Z,4.40
2023-02-18T02:40:38.531Z,4.33
2023-02-18T02:41:52.482Z,4.57
2023-02-18T02:43:05.484Z,4.57
2023-02-18T02:44:12.649Z,4.43
2023-02-18T02:45:20.235Z,4.23
2023-02-18T02:46:26.894Z,4.33
2023-02-18T02:47:32.863Z,4.17
2023-02-18T02:48:46.677Z,4.53
2023-02-18T02:50:00.620Z,4.23
2023-02-18T02:51:24.112Z,4.50
2023-02-18T02:52:38.695Z,4.43
2023-02-18T02:53:41.252Z,4.20
2023-02-18T02:54:43.146Z,4.10
2023-02-18T02:55:44.510Z,4.03
2023-02-18T02:56:45.937Z,4.30
2023-02-18T02:57:50.870Z,4.13
2023-02-18T02:59:02.740Z,4.30
2023-02-18T03:00:10.666Z,4.13
2023-02-18T03:01:14.666Z,4.40
2023-02-18T03:02:31.235Z,4.37
2023-02-18T03:03:32.614Z,4.10
2023-02-18T03:04:43.347Z,3.97
2023-02-18T03:05:54.128Z,4.13
2023-02-18T03:07:02.148Z,4.37
2023-02-18T03:08:06.064Z,4.10
2023-02-18T03:09:16.643Z,4.10
2023-02-18T03:10:28.184Z,3.90
2023-02-18T03:11:34.001Z,4.13
2023-02-18T03:12:58.184Z,4.00
2023-02-18T03:14:18.001Z,3.77
2023-02-18T03:15:26.133Z,4.17
2023-02-18T03:16:37.066Z,3.90
2023-02-18T03:17:43.662Z,3.60
2023-02-18T03:19:05.281Z,4.17
2023-02-18T03:20:10.341Z,4.07
2023-02-18T03:21:23.851Z,4.40
2023-02-18T03:22:29.039Z,4.40
2023-02-18T03:23:34.298Z,4.37
2023-02-18T03:24:35.991Z,4.50
2023-02-18T03:25:38.478Z,4.43
2023-02-18T03:26:42.507Z,4.43
2023-02-18T03:27:45.907Z,4.17
2023-02-18T03:28:48.348Z,4.17
2023-02-18T03:29:53.835Z,4.37
2023-02-18T03:31:09.988Z,4.93
2023-02-18T03:32:12.900Z,4.70
2023-02-18T03:33:17.251Z,4.80
2023-02-18T03:34:22.342Z,4.97
2023-02-18T03:35:24.134Z,4.60
2023-02-18T03:36:25.891Z,5.07
2023-02-18T03:37:27.802Z,4.70
2023-02-18T03:38:36.158Z,4.40
2023-02-18T03:39:40.088Z,4.83
2023-02-18T03:40:41.536Z,4.53
2023-02-18T03:41:43.642Z,5.03
2023-02-18T03:42:45.342Z,5.00
2023-02-18T03:43:50.768Z,4.80
2023-02-18T03:44:52.104Z,4.80
2023-02-18T03:45:53.770Z,5.03
2023-02-18T03:46:55.228Z,4.80
2023-02-18T03:47:56.645Z,4.87
2023-02-18T03:48:59.134Z,5.03
2023-02-18T03:50:00.518Z,5.00
2023-02-18T03:51:01.875Z,5.23
2023-02-18T03:52:03.438Z,4.90
2023-02-18T03:53:04.931Z,4.50
2023-02-18T03:54:06.270Z,4.60
2023-02-18T03:55:09.218Z,4.60
2023-02-18T03:56:10.787Z,5.33
2023-02-18T03:57:12.321Z,4.93
2023-02-18T03:58:13.698Z,5.63
2023-02-18T03:59:15.074Z,5.17
2023-02-18T04:00:17.037Z,5.40
2023-02-18T04:01:18.404Z,5.10
2023-02-18T04:02:19.725Z,5.30
2023-02-18T04:03:21.048Z,5.27
2023-02-18T04:04:22.482Z,5.53
2023-02-18T04:05:23.875Z,5.17
2023-02-18T04:06:25.202Z,5.20
2023-02-18T04:07:26.666Z,5.40
2023-02-18T04:08:28.136Z,5.90
2023-02-18T04:09:29.565Z,5.20
2023-02-18T04:10:30.947Z,5.67
2023-02-18T04:11:32.272Z,5.33
2023-02-18T04:12:33.630Z,5.77
2023-02-18T04:13:35.069Z,5.47
2023-02-18T04:14:36.433Z,4.97
2023-02-18T04:15:37.760Z,5.57
2023-02-18T04:16:39.368Z,5.50
2023-02-18T04:17:40.947Z,5.50
2023-02-18T04:18:42.250Z,5.67
2023-02-18T04:19:43.707Z,5.47
2023-02-18T04:20:46.273Z,5.77
2023-02-18T04:21:47.577Z,5.23
2023-02-18T04:22:48.917Z,6.03
2023-02-18T04:23:50.241Z,5.23
2023-02-18T04:24:51.619Z,5.40
2023-02-18T04:25:52.932Z,5.17
2023-02-18T04:26:54.233Z,5.73
2023-02-18T04:27:55.566Z,5.77
2023-02-18T04:28:56.927Z,5.50
2023-02-18T04:29:58.293Z,5.73
2023-02-18T04:30:59.672Z,5.50
2023-02-18T04:32:01.014Z,5.73
2023-02-18T04:33:02.319Z,5.70
2023-02-18T04:34:03.746Z,5.70
2023-02-18T04:35:05.256Z,5.87
2023-02-18T04:36:07.096Z,6.00
2023-02-18T04:37:08.658Z,5.93
2023-02-18T04:38:10.601Z,6.17
2023-02-18T04:39:11.928Z,5.97
2023-02-18T04:40:13.264Z,5.63
2023-02-18T04:41:14.617Z,6.00
2023-02-18T04:42:15.924Z,6.07
2023-02-18T04:43:17.293Z,6.17
2023-02-18T04:44:18.670Z,6.23
2023-02-18T04:45:19.959Z,6.50
2023-02-18T04:46:21.403Z,6.80
2023-02-18T04:47:22.912Z,6.33
2023-02-18T04:48:24.219Z,6.43
2023-02-18T04:49:25.550Z,6.33
2023-02-18T04:50:26.857Z,6.50
2023-02-18T04:51:28.360Z,6.93
2023-02-18T04:52:29.644Z,6.30
2023-02-18T04:53:31.099Z,6.37
2023-02-18T04:54:32.527Z,6.83
2023-02-18T04:55:33.847Z,6.90
2023-02-18T04:56:35.165Z,6.73
2023-02-18T04:57:36.569Z,7.20
2023-02-18T04:58:37.867Z,6.60
2023-02-18T04:59:39.230Z,6.73
2023-02-18T05:00:40.518Z,6.53
2023-02-18T05:01:41.839Z,6.87
2023-02-18T05:02:43.324Z,7.37
2023-02-18T05:03:46.088Z,6.60
2023-02-18T05:04:47.436Z,7.10
2023-02-18T05:05:48.755Z,6.73
2023-02-18T05:06:50.088Z,6.93
2023-02-18T05:07:51.394Z,7.50
2023-02-18T05:08:52.727Z,7.00
2023-02-18T05:09:54.111Z,7.30
2023-02-18T05:10:55.443Z,6.87
2023-02-18T05:11:56.857Z,7.37
2023-02-18T05:12:58.222Z,7.27
2023-02-18T05:13:59.503Z,7.13
2023-02-18T05:15:00.925Z,7.17
2023-02-18T05:16:02.284Z,7.43
2023-02-18T05:17:03.639Z,7.10
2023-02-18T05:18:05.048Z,7.23
2023-02-18T05:19:06.370Z,7.40
2023-02-18T05:20:09.902Z,7.50
2023-02-18T05:21:12.132Z,7.60
2023-02-18T05:22:13.532Z,7.93
2023-02-18T05:23:14.868Z,7.27
2023-02-18T05:24:16.227Z,8.30
2023-02-18T05:25:17.908Z,8.00
2023-02-18T05:26:19.387Z,7.50
2023-02-18T05:27:20.712Z,7.37
2023-02-18T05:28:22.156Z,7.47
2023-02-18T05:29:23.461Z,7.63
2023-02-18T05:30:25.023Z,7.77
2023-02-18T05:31:26.479Z,7.57
2023-02-18T05:32:27.799Z,7.77
2023-02-18T05:33:29.137Z,6.73
2023-02-18T05:34:30.474Z,7.67
2023-02-18T05:35:31.832Z,8.43
2023-02-18T05:36:33.180Z,8.43
2023-02-18T05:37:34.673Z,7.63
2023-02-18T05:38:35.994Z,7.97
2023-02-18T05:39:37.302Z,7.07
2023-02-18T05:40:38.901Z,7.63
2023-02-18T05:41:40.191Z,7.90
2023-02-18T05:42:41.481Z,7.67
2023-02-18T05:44:01.255Z,7.90
2023-02-18T05:45:02.571Z,7.73
2023-02-18T05:46:03.973Z,7.53
2023-02-18T05:47:06.761Z,7.90
2023-02-18T05:48:08.066Z,7.87
2023-02-18T05:49:09.441Z,7.73
2023-02-18T05:50:10.887Z,8.00
2023-02-18T05:51:12.242Z,8.37
2023-02-18T05:52:13.630Z,8.10
2023-02-18T05:53:17.516Z,7.67
2023-02-18T05:54:19.068Z,8.37
2023-02-18T05:55:20.463Z,8.27
2023-02-18T05:56:21.892Z,7.60
2023-02-18T05:57:23.222Z,7.60
2023-02-18T05:58:24.509Z,8.00
2023-02-18T05:59:25.899Z,7.30
2023-02-18T06:00:29.828Z,7.83
2023-02-18T06:01:31.261Z,7.63
2023-02-18T06:02:32.633Z,7.40
2023-02-18T06:03:34.098Z,7.30
2023-02-18T06:04:35.475Z,7.47
2023-02-18T06:05:36.926Z,7.43
2023-02-18T06:06:38.331Z,7.97
2023-02-18T06:07:39.668Z,7.07
2023-02-18T06:08:40.958Z,6.97
2023-02-18T06:09:42.281Z,6.80
2023-02-18T06:10:43.596Z,7.00
2023-02-18T06:11:44.926Z,7.77
2023-02-18T06:12:46.397Z,7.10
2023-02-18T06:13:47.708Z,6.93
2023-02-18T06:14:49.171Z,7.47
2023-02-18T06:15:51.784Z,6.70
2023-02-18T06:16:53.123Z,7.30
2023-02-18T06:17:54.433Z,7.50
2023-02-18T06:18:55.766Z,7.23
2023-02-18T06:19:57.092Z,7.40
2023-02-18T06:20:58.439Z,7.30
2023-02-18T06:21:59.754Z,7.13
2023-02-18T06:23:01.073Z,6.90
2023-02-18T06:24:02.476Z,6.97
2023-02-18T06:25:03.856Z,5.93
2023-02-18T06:26:05.257Z,5.90
2023-02-18T06:27:06.846Z,6.10
2023-02-18T06:28:08.472Z,6.80
2023-02-18T06:29:09.899Z,6.50
2023-02-18T06:30:11.403Z,6.30
2023-02-18T06:31:13.171Z,6.27
2023-02-18T06:32:14.685Z,6.47
2023-02-18T06:33:16.223Z,5.50
2023-02-18T06:34:17.569Z,6.20
2023-02-18T06:35:18.937Z,6.13
2023-02-18T06:36:20.279Z,5.83
2023-02-18T06:37:21.650Z,5.90
2023-02-18T06:38:23.182Z,5.67
2023-02-18T06:39:24.763Z,6.00
2023-02-18T06:40:26.438Z,5.70
2023-02-18T06:41:27.782Z,6.20
2023-02-18T06:42:29.099Z,6.20
2023-02-18T06:43:30.431Z,5.50
2023-02-18T06:44:31.717Z,5.40
2023-02-18T06:45:33.053Z,5.67
2023-02-18T06:46:34.390Z,5.43
2023-02-18T06:47:35.727Z,6.00
2023-02-18T06:48:38.126Z,5.40
2023-02-18T06:49:39.491Z,5.90
2023-02-18T06:50:42.999Z,5.73
2023-02-18T06:51:44.478Z,5.67
2023-02-18T06:52:45.771Z,5.47
2023-02-18T06:53:47.042Z,5.50
2023-02-18T06:54:48.392Z,5.60
2023-02-18T06:55:49.872Z,5.60
2023-02-18T06:56:51.224Z,5.60
2023-02-18T06:57:52.526Z,6.27
2023-02-18T06:58:53.873Z,5.50
2023-02-18T06:59:55.188Z,5.30
2023-02-18T07:00:56.537Z,5.90
2023-02-18T07:01:57.861Z,4.93
2023-02-18T07:02:59.179Z,5.47
2023-02-18T07:04:00.660Z,5.70
2023-02-18T07:05:01.978Z,5.87
2023-02-18T07:06:03.476Z,5.43
2023-02-18T07:07:04.809Z,5.43
2023-02-18T07:08:06.130Z,5.43
2023-02-18T07:09:07.727Z,5.13
2023-02-18T07:10:09.238Z,5.50
2023-02-18T07:11:10.644Z,5.23
2023-02-18T07:12:11.951Z,5.10
2023-02-18T07:13:13.620Z,5.10
2023-02-18T07:14:14.932Z,4.40
2023-02-18T07:15:16.979Z,5.57
2023-02-18T07:16:18.368Z,5.07
2023-02-18T07:17:19.734Z,4.83
2023-02-18T07:18:21.230Z,5.00
2023-02-18T07:19:22.622Z,5.27
2023-02-18T07:20:24.555Z,5.40
2023-02-18T07:21:25.920Z,5.13
2023-02-18T07:22:31.385Z,4.60
2023-02-18T07:23:35.800Z,5.17
2023-02-18T07:24:46.078Z,5.13
2023-02-18T07:25:47.415Z,5.00
2023-02-18T07:26:48.697Z,5.03
2023-02-18T07:27:50.628Z,5.10
2023-02-18T07:28:51.973Z,4.93
2023-02-18T07:29:53.410Z,5.00
2023-02-18T07:30:54.770Z,5.23
2023-02-18T07:31:56.148Z,4.53
2023-02-18T07:32:57.521Z,5.10
2023-02-18T07:33:58.924Z,5.00
2023-02-18T07:35:00.241Z,4.70
2023-02-18T07:36:01.797Z,5.17
2023-02-18T07:37:04.813Z,5.40
2023-02-18T07:38:06.116Z,4.83
2023-02-18T07:39:07.417Z,5.20
2023-02-18T07:40:10.516Z,5.07
2023-02-18T07:41:16.948Z,5.10
2023-02-18T07:42:18.318Z,4.97
2023-02-18T07:43:19.998Z,5.30
2023-02-18T07:44:21.295Z,5.20
2023-02-18T07:45:22.575Z,5.27
2023-02-18T07:46:23.905Z,5.17
2023-02-18T07:47:25.333Z,4.93
2023-02-18T07:48:26.639Z,4.97
2023-02-18T07:49:28.359Z,4.70
2023-02-18T07:50:35.021Z,4.80
2023-02-18T07:51:38.350Z,4.97
2023-02-18T07:52:39.692Z,5.20
2023-02-18T07:53:41.602Z,4.80
2023-02-18T07:54:43.174Z,4.70
2023-02-18T07:55:50.321Z,5.30
2023-02-18T07:56:52.155Z,5.13
2023-02-18T07:58:02.133Z,5.07
2023-02-18T07:59:03.479Z,5.00
2023-02-18T08:00:04.944Z,4.83
2023-02-18T08:01:14.915Z,5.10
2023-02-18T08:02:23.360Z,4.90
2023-02-18T08:03:26.134Z,4.30
2023-02-18T08:04:27.468Z,4.90
2023-02-18T08:05:28.849Z,5.10
2023-02-18T08:06:37.402Z,5.43
2023-02-18T08:07:40.006Z,5.03
2023-02-18T08:08:41.288Z,4.77
2023-02-18T08:09:42.615Z,4.90
2023-02-18T08:10:43.976Z,4.10
2023-02-18T08:11:45.458Z,4.53
2023-02-18T08:12:46.808Z,4.87
2023-02-18T08:13:48.626Z,4.77
2023-02-18T08:14:51.183Z,4.47
2023-02-18T08:15:54.394Z,4.50
2023-02-18T08:16:55.732Z,4.73
2023-02-18T08:17:57.114Z,4.53
2023-02-18T08:18:58.715Z,4.53
2023-02-18T08:20:00.058Z,4.63
2023-02-18T08:21:01.550Z,4.47
2023-02-18T08:22:03.183Z,4.13
2023-02-18T08:23:05.291Z,4.23
2023-02-18T08:24:08.073Z,5.30
2023-02-18T08:25:15.732Z,5.07
2023-02-18T08:26:28.863Z,4.23
2023-02-18T08:27:30.248Z,4.30
2023-02-18T08:28:31.603Z,4.53
2023-02-18T08:29:32.942Z,4.23
2023-02-18T08:30:34.432Z,4.20
2023-02-18T08:31:35.924Z,4.03
2023-02-18T08:32:37.294Z,4.40
2023-02-18T08:33:38.621Z,4.30
2023-02-18T08:34:39.996Z,4.77
2023-02-18T08:35:41.501Z,4.60
2023-02-18T08:36:42.778Z,4.50
2023-02-18T08:37:52.915Z,3.97
2023-02-18T08:38:55.543Z,4.13
2023-02-18T08:39:56.898Z,5.77
2023-02-18T08:41:02.211Z,4.57
2023-02-18T08:42:03.652Z,4.50
2023-02-18T08:43:04.948Z,4.40
2023-02-18T08:44:06.378Z,4.27
2023-02-18T08:45:08.001Z,3.67
2023-02-18T08:46:15.963Z,4.27
2023-02-18T08:48:18.500Z,4.10
2023-02-18T08:48:39.128Z,4.67
2023-02-18T08:49:40.575Z,4.03
2023-02-18T08:50:41.920Z,4.03
2023-02-18T08:51:43.375Z,3.63
2023-02-18T08:52:44.686Z,3.80
2023-02-18T08:53:47.184Z,3.67
2023-02-18T08:54:48.640Z,3.70
2023-02-18T08:55:49.961Z,4.00
2023-02-18T08:56:54.175Z,3.97
2023-02-18T08:57:55.622Z,3.70
2023-02-18T08:58:56.968Z,3.57
2023-02-18T08:59:58.337Z,4.03
2023-02-18T09:01:01.820Z,3.80
2023-02-18T09:02:03.606Z,3.93
2023-02-18T09:03:05.526Z,3.80
2023-02-18T09:04:06.924Z,4.27
2023-02-18T09:05:09.569Z,4.20
2023-02-18T09:06:10.927Z,5.10
2023-02-18T09:07:12.288Z,4.30
2023-02-18T09:08:14.959Z,3.73
2023-02-18T09:09:19.044Z,3.37
2023-02-18T09:10:23.196Z,3.70
2023-02-18T09:11:24.584Z,3.47
2023-02-18T09:12:26.171Z,3.47
2023-02-18T09:13:28.276Z,3.80
2023-02-18T09:14:29.661Z,3.77
2023-02-18T09:15:32.250Z,3.97
2023-02-18T09:16:33.595Z,3.60
2023-02-18T09:17:34.960Z,3.63
2023-02-18T09:18:36.541Z,4.53
2023-02-18T09:19:37.875Z,3.80
2023-02-18T09:20:39.993Z,3.93
2023-02-18T09:21:41.323Z,3.50
2023-02-18T09:22:42.646Z,3.70
2023-02-18T09:23:43.977Z,3.83
2023-02-18T09:24:45.384Z,3.90
2023-02-18T09:25:46.767Z,3.80
2023-02-18T09:26:48.069Z,4.00
2023-02-18T09:27:49.452Z,4.00
2023-02-18T09:28:51.791Z,3.87
2023-02-18T09:29:53.145Z,4.20
2023-02-18T09:30:54.516Z,4.00
2023-02-18T09:31:55.957Z,3.90
2023-02-18T09:32:57.358Z,3.60
2023-02-18T09:34:00.234Z,3.90
2023-02-18T09:35:02.630Z,4.10
2023-02-18T09:36:04.262Z,3.60
2023-02-18T09:37:05.559Z,3.80
2023-02-18T09:38:07.759Z,3.90
2023-02-18T09:39:09.064Z,3.90
2023-02-18T09:40:21.293Z,3.93
2023-02-18T09:41:38.452Z,3.80
2023-02-18T09:42:39.825Z,3.70
2023-02-18T09:43:43.886Z,3.57
2023-02-18T09:44:45.181Z,3.40
2023-02-18T09:45:46.560Z,3.60
2023-02-18T09:46:50.970Z,4.10
2023-02-18T09:47:52.720Z,4.10
2023-02-18T09:48:54.232Z,4.23
2023-02-18T09:49:58.036Z,3.53
2023-02-18T09:50:59.713Z,3.73
2023-02-18T09:52:16.428Z,4.50
2023-02-18T09:53:18.112Z,4.77
2023-02-18T09:54:20.078Z,4.27
2023-02-18T09:55:24.259Z,3.77
2023-02-18T09:56:30.370Z,3.73
2023-02-18T09:57:45.043Z,3.70
2023-02-18T09:58:47.214Z,4.30
2023-02-18T09:59:54.762Z,4.00
2023-02-18T10:01:17.803Z,4.47
2023-02-18T10:02:22.921Z,3.87
2023-02-18T10:03:27.108Z,3.90
2023-02-18T10:04:32.021Z,4.20
2023-02-18T10:05:34.257Z,4.20
2023-02-18T10:06:35.865Z,3.70
2023-02-18T10:07:38.713Z,4.00
2023-02-18T10:08:45.236Z,3.90
2023-02-18T10:09:47.242Z,4.10
2023-02-18T10:10:51.630Z,3.90
2023-02-18T10:11:56.728Z,4.00
2023-02-18T10:12:58.606Z,4.37
2023-02-18T10:14:01.243Z,4.53
2023-02-18T10:15:16.286Z,3.80
2023-02-18T10:16:18.886Z,3.90
2023-02-18T10:17:21.501Z,3.80
2023-02-18T10:18:41.530Z,4.17
2023-02-18T10:19:44.109Z,4.00
2023-02-18T10:20:47.842Z,4.27
2023-02-18T10:21:49.862Z,4.10
2023-02-18T10:22:53.009Z,4.37
2023-02-18T10:24:01.769Z,4.07
2023-02-18T10:25:07.589Z,3.27
2023-02-18T10:26:14.540Z,4.97
2023-02-18T10:27:23.832Z,4.60
2023-02-18T10:28:26.321Z,4.60
2023-02-18T10:29:28.320Z,4.27
2023-02-18T10:30:32.672Z,4.17
2023-02-18T10:31:36.294Z,3.90
2023-02-18T10:32:42.836Z,3.87
2023-02-18T10:33:53.584Z,3.93
2023-02-18T10:35:00.835Z,4.00
2023-02-18T10:36:21.266Z,3.97
2023-02-18T10:37:25.567Z,3.90
2023-02-18T10:38:40.407Z,4.07
2023-02-18T10:39:48.025Z,4.03
2023-02-18T10:40:49.360Z,3.70
2023-02-18T10:42:11.305Z,3.80
2023-02-18T10:43:16.597Z,4.00
2023-02-18T10:44:41.410Z,4.00
2023-02-18T10:45:59.878Z,3.87
2023-02-18T10:47:01.216Z,4.30
2023-02-18T10:48:08.459Z,4.53
2023-02-18T10:49:12.837Z,3.83
2023-02-18T10:50:23.406Z,3.70
2023-02-18T10:51:26.919Z,3.63
2023-02-18T10:52:30.841Z,3.97
2023-02-18T10:53:34.377Z,3.87
2023-02-18T10:54:54.005Z,4.00
2023-02-18T10:55:56.746Z,3.40
2023-02-18T10:57:00.111Z,4.30
2023-02-18T10:58:01.493Z,4.07
2023-02-18T10:59:13.779Z,4.10
2023-02-18T11:00:15.102Z,3.90
2023-02-18T11:01:19.201Z,3.70
2023-02-18T11:02:21.034Z,3.73
2023-02-18T11:03:23.454Z,4.10
2023-02-18T11:04:39.395Z,3.70
2023-02-18T11:05:40.903Z,3.90
2023-02-18T11:06:46.260Z,3.67
2023-02-18T11:07:49.767Z,3.63
2023-02-18T11:08:53.434Z,3.40
2023-02-18T11:09:56.138Z,3.53
2023-02-18T11:10:57.985Z,3.63
2023-02-18T11:12:09.105Z,3.70
2023-02-18T11:13:12.445Z,3.57
2023-02-18T11:14:15.251Z,3.43
2023-02-18T11:15:21.277Z,3.87
2023-02-18T11:16:23.762Z,3.77
2023-02-18T11:17:30.885Z,3.30
2023-02-18T11:18:36.247Z,2.90
2023-02-18T11:19:40.532Z,3.70
2023-02-18T11:20:42.102Z,3.20
2023-02-18T11:21:43.466Z,3.20
2023-02-18T11:22:44.837Z,4.33
2023-02-18T11:23:50.435Z,4.50
2023-02-18T11:24:54.352Z,4.30
2023-02-18T11:25:58.176Z,4.23
2023-02-18T11:26:59.553Z,4.60
2023-02-18T11:28:21.120Z,4.43
2023-02-18T11:29:26.628Z,5.23
2023-02-18T11:30:33.645Z,5.50
2023-02-18T11:31:39.867Z,5.30
2023-02-18T11:32:41.315Z,5.13
2023-02-18T11:33:45.844Z,6.10
2023-02-18T11:34:49.186Z,5.77
2023-02-18T11:35:51.797Z,6.17
2023-02-18T11:36:54.010Z,6.30
2023-02-18T11:37:59.477Z,6.03
2023-02-18T11:39:04.548Z,6.20
2023-02-18T11:40:20.362Z,6.70
2023-02-18T11:41:33.196Z,6.47
2023-02-18T11:42:34.514Z,6.80
2023-02-18T11:43:36.445Z,6.63
2023-02-18T11:44:39.798Z,7.03
2023-02-18T11:45:41.914Z,6.30
2023-02-18T11:46:56.242Z,6.63
2023-02-18T11:48:01.621Z,6.70
2023-02-18T11:49:22.535Z,6.90
2023-02-18T11:50:24.034Z,6.57
2023-02-18T11:51:27.448Z,6.93
2023-02-18T11:52:35.824Z,6.87
2023-02-18T11:53:37.958Z,7.13
2023-02-18T11:54:44.014Z,6.83
2023-02-18T11:55:53.357Z,7.40
2023-02-18T11:57:10.675Z,7.93
2023-02-18T11:58:13.902Z,7.10
2023-02-18T11:59:15.259Z,7.17
2023-02-18T12:00:21.755Z,7.03
2023-02-18T12:01:41.626Z,6.50
2023-02-18T12:02:43.120Z,6.47
2023-02-18T12:03:52.779Z,6.97
2023-02-18T12:05:11.195Z,6.10
2023-02-18T12:06:15.396Z,6.50
2023-02-18T12:07:22.697Z,6.90
2023-02-18T12:08:27.036Z,6.37
2023-02-18T12:09:28.548Z,6.27
2023-02-18T12:10:35.675Z,6.03
2023-02-18T12:11:40.828Z,7.07
2023-02-18T12:12:51.971Z,6.50
2023-02-18T12:13:57.446Z,6.20
2023-02-18T12:14:59.536Z,6.17
2023-02-18T12:16:17.594Z,6.20
2023-02-18T12:17:25.190Z,6.17
2023-02-18T12:18:44.568Z,6.10
2023-02-18T12:19:52.537Z,7.10
2023-02-18T12:21:09.014Z,6.20
2023-02-18T12:22:10.477Z,6.10
2023-02-18T12:23:14.860Z,5.70
2023-02-18T12:24:21.450Z,5.90
2023-02-18T12:25:44.240Z,6.47
2023-02-18T12:26:48.054Z,6.87
2023-02-18T12:27:54.456Z,6.40
2023-02-18T12:29:06.281Z,6.20
2023-02-18T12:30:28.965Z,6.20
2023-02-18T12:31:57.318Z,5.77
2023-02-18T12:33:05.277Z,6.00
2023-02-18T12:34:27.204Z,5.50
2023-02-18T12:35:37.776Z,5.57
2023-02-18T12:36:57.941Z,5.40
2023-02-18T12:38:10.634Z,5.30
2023-02-18T12:39:12.535Z,5.50
2023-02-18T12:40:21.030Z,5.17
2023-02-18T12:41:37.760Z,5.40
2023-02-18T12:42:54.063Z,5.23
2023-02-18T12:43:58.185Z,5.63
2023-02-18T12:44:59.520Z,5.20
2023-02-18T12:46:10.063Z,5.30
2023-02-18T12:47:20.008Z,5.10
2023-02-18T12:48:27.372Z,5.20
2023-02-18T12:49:54.782Z,5.10
2023-02-18T12:51:11.701Z,4.50
2023-02-18T12:52:13.110Z,4.50
2023-02-18T12:53:33.086Z,5.10
2023-02-18T12:54:47.844Z,4.80
2023-02-18T12:56:08.035Z,5.23
2023-02-18T12:57:20.682Z,4.83
2023-02-18T12:58:31.063Z,4.67
2023-02-18T12:59:32.346Z,4.50
2023-02-18T13:00:58.390Z,4.90
2023-02-18T13:02:18.572Z,4.87
2023-02-18T13:03:42.791Z,5.17
2023-02-18T13:04:50.518Z,4.40
2023-02-18T13:06:09.620Z,4.27
2023-02-18T13:07:12.321Z,4.63
2023-02-18T13:08:13.586Z,4.47
2023-02-18T13:09:23.622Z,4.23
2023-02-18T13:10:43.830Z,4.50
2023-02-18T13:12:04.044Z,3.90
2023-02-18T13:13:11.118Z,4.20
2023-02-18T13:14:15.837Z,4.33
2023-02-18T13:15:35.806Z,4.43
2023-02-18T13:16:38.324Z,4.20
2023-02-18T13:17:41.312Z,4.17
2023-02-18T13:18:50.170Z,4.60
2023-02-18T13:19:55.572Z,4.23
2023-02-18T13:21:07.689Z,4.07
2023-02-18T13:22:10.396Z,4.63
2023-02-18T13:23:25.866Z,4.60
2023-02-18T13:24:35.279Z,4.17
2023-02-18T13:25:38.437Z,4.23
2023-02-18T13:26:41.023Z,4.30
2023-02-18T13:27:42.306Z,4.50
2023-02-18T13:28:50.002Z,4.07
2023-02-18T13:29:56.446Z,4.37
2023-02-18T13:30:57.828Z,4.03
2023-02-18T13:32:12.916Z,4.50
2023-02-18T13:33:33.153Z,4.13
2023-02-18T13:34:42.915Z,4.10
2023-02-18T13:36:00.112Z,4.30
2023-02-18T13:37:10.661Z,4.00
2023-02-18T13:38:26.735Z,4.00
2023-02-18T13:39:28.332Z,4.07
2023-02-18T13:40:30.575Z,23.27
2023-02-18T13:41:36.389Z,36.07
2023-02-18T13:42:37.909Z,29.53
2023-02-18T13:43:39.837Z,11.40
2023-02-18T13:44:56.536Z,24.70
2023-02-18T13:46:03.897Z,10.20
2023-02-18T13:47:08.334Z,16.20
2023-02-18T13:48:28.270Z,19.00
2023-02-18T13:49:33.537Z,7.20
2023-02-18T13:50:42.894Z,4.87
2023-02-18T13:51:46.225Z,4.53
2023-02-18T13:52:48.636Z,4.00
2023-02-18T13:53:51.682Z,4.33
2023-02-18T13:54:55.558Z,4.43
2023-02-18T13:56:00.300Z,4.37
2023-02-18T13:57:03.659Z,4.10
2023-02-18T13:58:05.288Z,4.00
2023-02-18T13:59:18.330Z,4.27
2023-02-18T14:00:24.863Z,4.40
2023-02-18T14:01:29.213Z,4.20
2023-02-18T14:02:32.847Z,4.30
2023-02-18T14:03:34.295Z,3.87
2023-02-18T14:04:42.191Z,4.03
2023-02-18T14:05:43.614Z,4.63
2023-02-18T14:07:04.890Z,4.53
2023-02-18T14:08:11.096Z,4.63
2023-02-18T14:09:12.398Z,4.53
2023-02-18T14:10:13.812Z,4.40
2023-02-18T14:11:15.206Z,4.10
2023-02-18T14:12:39.245Z,4.10
2023-02-18T14:13:41.894Z,4.60
2023-02-18T14:14:43.539Z,4.50
2023-02-18T14:15:55.975Z,4.67
2023-02-18T14:17:13.255Z,4.60
2023-02-18T14:18:14.592Z,4.33
2023-02-18T14:19:29.180Z,4.37